Time;durP1;ratioP1;P1;durP2;ratioP2;P2;SDS_P1;SDS_P2;PMS_P1;PMS_P2;Temp;Humidity;BMP_temperature;BMP_pressure;BME280_temperature;BME280_humidity;BME280_pressure;Samples;Min_cycle;Max_cycle;Signal;HPM_P1;HPM_P2
2022/11/27 00:01:34;;;;;;;99.97;90.32;;;;;;;-0.34;91.30;101606.09;1669749;85;25681;-67
2022/11/27 00:04:00;;;;;;;91.60;83.20;;;;;;;-0.33;91.39;101605.09;1669737;86;25481;-67
2022/11/27 00:06:30;;;;;;;95.87;86.90;;;;;;;-0.35;91.45;101598.64;1669826;85;25584;-67
2022/11/27 00:09:02;;;;;;;93.97;85.20;;;;;;;-0.31;91.42;101602.52;1669824;86;27458;-69
2022/11/27 00:11:31;;;;;;;97.45;88.15;;;;;;;-0.29;91.46;101600.98;1669706;86;25419;-69
2022/11/27 00:13:59;;;;;;;65.47;59.45;;;;;;;-0.28;91.40;101597.31;1669842;86;25475;-69
2022/11/27 00:16:28;;;;;;;92.50;83.87;;;;;;;-0.28;91.27;101598.64;1669623;83;25436;-69
2022/11/27 00:18:55;;;;;;;65.20;59.40;;;;;;;-0.29;91.14;101604.48;1669861;85;25438;-69
2022/11/27 00:21:26;;;;;;;94.97;86.00;;;;;;;-0.29;91.04;101605.81;1669664;86;27550;-69
2022/11/27 00:23:57;;;;;;;93.22;85.07;;;;;;;-0.30;91.07;101604.69;1669740;86;25807;-69
2022/11/27 00:26:26;;;;;;;91.85;83.87;;;;;;;-0.31;91.02;101603.84;1669780;86;25636;-69
2022/11/27 00:28:54;;;;;;;;;;;;;;;-0.35;91.11;101595.17;1672173;86;25644;-69
2022/11/27 00:31:29;;;;;;;89.45;81.78;;;;;;;-0.32;91.14;101594.74;1669728;86;25391;-70
2022/11/27 00:34:01;;;;;;;92.05;84.13;;;;;;;-0.33;91.08;101599.25;1669785;85;28017;-70
2022/11/27 00:36:31;;;;;;;93.90;85.67;;;;;;;-0.34;91.17;101598.96;1669696;85;25759;-71
2022/11/27 00:38:59;;;;;;;93.58;84.25;;;;;;;-0.34;91.32;101600.78;1669768;85;25516;-71
2022/11/27 00:41:30;;;;;;;96.05;87.17;;;;;;;-0.36;91.31;101596.99;1669663;86;25614;-70
2022/11/27 00:43:58;;;;;;;73.78;66.85;;;;;;;-0.37;91.35;101599.36;1669734;85;25603;-70
2022/11/27 00:46:29;;;;;;;98.10;88.47;;;;;;;-0.38;91.42;101596.38;1669703;86;27531;-70
2022/11/27 00:49:02;;;;;;;96.85;88.15;;;;;;;-0.38;91.53;101599.86;1669112;86;25668;-70
2022/11/27 00:51:31;;;;;;;97.25;87.85;;;;;;;-0.38;91.59;101599.05;1669709;85;25490;-69
2022/11/27 00:53:59;;;;;;;98.80;89.62;;;;;;;-0.38;91.59;101601.18;1669675;86;25537;-69
2022/11/27 00:56:35;;;;;;;97.10;88.10;;;;;;;-0.36;91.66;101597.52;1669872;86;25417;-69
2022/11/27 00:59:05;;;;;;;94.50;85.72;;;;;;;-0.38;91.63;101599.05;1669755;86;28035;-69
2022/11/27 01:01:37;;;;;;;95.95;87.20;;;;;;;-0.35;91.54;101593.84;1669610;86;25609;-69
2022/11/27 01:04:09;;;;;;;96.75;87.82;;;;;;;-0.36;91.54;101593.52;1669756;86;25403;-69
2022/11/27 01:06:37;;;;;;;100.50;90.83;;;;;;;-0.37;91.52;101600.69;1669803;85;25414;-69
2022/11/27 01:09:05;;;;;;;99.55;89.77;;;;;;;-0.38;91.45;101602.52;1669657;86;25483;-69
2022/11/27 01:11:36;;;;;;;98.75;88.52;;;;;;;-0.38;91.57;101606.50;1669757;86;27521;-69
2022/11/27 01:14:16;;;;;;;97.02;87.37;;;;;;;-0.39;91.58;101599.56;1669660;86;25738;-69
2022/11/27 01:16:44;;;;;;;101.92;91.47;;;;;;;-0.39;91.58;101600.09;1669595;83;25849;-68
2022/11/27 01:19:13;;;;;;;100.27;90.17;;;;;;;-0.39;91.68;101594.77;1669596;86;25650;-68
2022/11/27 01:21:41;;;;;;;72.60;65.80;;;;;;;-0.40;91.69;101599.77;1669935;86;25640;-68
2022/11/27 01:24:13;;;;;;;98.10;88.30;;;;;;;-0.40;91.69;101602.42;1669650;86;27455;-68
2022/11/27 01:26:42;;;;;;;101.60;91.35;;;;;;;-0.41;91.83;101599.45;1669010;86;25410;-68
2022/11/27 01:29:10;;;;;;;72.63;65.73;;;;;;;-0.40;91.85;101598.44;1669936;86;25407;-68
2022/11/27 01:31:38;;;;;;;102.30;91.85;;;;;;;-0.41;92.03;101602.94;1669610;85;25588;-68
2022/11/27 01:34:10;;;;;;;99.22;90.32;;;;;;;-0.40;92.07;101603.75;1669648;86;25615;-68
2022/11/27 01:36:36;;;;;;;103.30;93.27;;;;;;;-0.39;92.10;101610.20;1669578;86;27481;-69
2022/11/27 01:39:04;;;;;;;96.35;87.30;;;;;;;-0.40;92.15;101604.56;1669556;86;25805;-69
2022/11/27 01:41:35;;;;;;;98.80;88.62;;;;;;;-0.41;92.20;101600.28;1669661;85;25592;-69
2022/11/27 01:44:27;;;;;;;99.60;89.07;;;;;;;-0.38;92.29;101605.17;1669633;85;25528;-69
2022/11/27 01:47:15;;;;;;;98.82;89.47;;;;;;;-0.37;92.28;101604.68;1669690;85;25617;-69
2022/11/27 01:49:49;;;;;;;102.75;92.50;;;;;;;-0.37;92.10;101607.34;1669664;85;27624;-69
2022/11/27 01:52:30;;;;;;;95.28;85.67;;;;;;;-0.37;92.13;101608.67;1669569;85;27312;-68
2022/11/27 01:55:27;;;;;;;99.35;89.32;;;;;;;-0.37;92.17;101611.33;1668710;85;25637;-67
2022/11/27 01:58:11;;;;;;;96.75;87.17;;;;;;;-0.38;92.26;101608.34;1669244;86;25643;-68
2022/11/27 02:00:40;;;;;;;100.50;90.22;;;;;;;-0.40;92.26;101607.22;1668480;86;25745;-68
2022/11/27 02:03:06;;;;;;;68.87;62.10;;;;;;;-0.41;92.29;101606.94;1669744;85;28239;-67
2022/11/27 02:05:33;;;;;;;100.00;90.12;;;;;;;-0.43;92.41;101606.30;1669525;86;25548;-67
2022/11/27 02:08:08;;;;;;;98.17;88.03;;;;;;;-0.43;92.41;101606.30;1669715;85;25406;-67
2022/11/27 02:10:58;;;;;;;103.53;93.05;;;;;;;-0.44;92.52;101609.19;1669244;86;25678;-67
2022/11/27 02:13:30;;;;;;;98.03;87.85;;;;;;;-0.44;92.52;101609.19;1669688;86;25588;-67
2022/11/27 02:16:23;;;;;;;97.75;87.88;;;;;;;-0.44;92.68;101606.00;1677948;83;27477;-67
2022/11/27 02:19:18;;;;;;;104.20;93.72;;;;;;;-0.42;92.81;101611.93;1696017;84;25503;-67
2022/11/27 02:21:53;;;;;;;106.10;95.32;;;;;;;-0.42;92.84;101610.59;1635420;87;25599;-67
2022/11/27 02:24:58;;;;;;;98.35;88.15;;;;;;;-0.43;92.89;101614.27;1635354;87;26338;-67
2022/11/27 02:27:45;;;;;;;98.35;88.45;;;;;;;-0.42;93.05;101618.58;1632307;87;25489;-67
2022/11/27 02:30:13;;;;;;;102.65;92.27;;;;;;;-0.41;93.06;101617.56;1638829;87;27520;-67
2022/11/27 02:32:54;;;;;;;103.22;93.03;;;;;;;-0.41;93.09;101622.88;1632751;86;25941;-67
2022/11/27 02:35:49;;;;;;;100.38;90.28;;;;;;;-0.43;93.00;101622.77;1632507;87;25453;-67
2022/11/27 02:38:23;;;;;;;98.67;89.03;;;;;;;-0.41;93.05;101626.87;1632842;87;25554;-68
2022/11/27 02:41:10;;;;;;;102.60;92.80;;;;;;;-0.42;93.12;101625.74;1632878;87;25499;-68
2022/11/27 02:43:41;;;;;;;102.50;91.82;;;;;;;-0.44;93.15;101630.45;1632381;87;27593;-67
2022/11/27 02:46:10;;;;;;;98.85;88.97;;;;;;;-0.43;93.19;101631.55;1632850;87;25629;-67
2022/11/27 02:48:44;;;;;;;108.45;97.00;;;;;;;-0.44;93.29;101630.45;1632946;87;25670;-66
2022/11/27 02:51:16;;;;;;;101.67;91.40;;;;;;;-0.43;93.39;101640.85;1639603;87;25744;-67
2022/11/27 02:53:48;;;;;;;103.32;92.78;;;;;;;-0.44;93.49;101637.09;1639677;87;25674;-67
2022/11/27 02:56:20;;;;;;;103.07;92.40;;;;;;;-0.46;93.50;101631.98;1665186;84;27532;-67
2022/11/27 02:58:50;;;;;;;104.97;93.40;;;;;;;-0.44;93.58;101635.25;1694205;84;25549;-67
2022/11/27 03:01:20;;;;;;;102.15;91.42;;;;;;;-0.43;93.68;101640.85;1694248;84;25410;-67
2022/11/27 03:03:52;;;;;;;108.42;95.62;;;;;;;-0.43;93.72;101636.86;1698891;84;25610;-67
2022/11/27 03:06:36;;;;;;;98.97;88.78;;;;;;;-0.42;93.79;101635.86;1694258;84;25538;-67
2022/11/27 03:09:18;;;;;;;99.60;89.35;;;;;;;-0.41;93.85;101638.00;1697976;84;27692;-67
2022/11/27 03:11:48;;;;;;;107.58;95.80;;;;;;;-0.40;93.87;101635.66;1676802;84;26166;-67
2022/11/27 03:14:16;;;;;;;103.75;92.90;;;;;;;-0.38;93.88;101638.92;1699023;84;25497;-67
2022/11/27 03:16:54;;;;;;;107.47;94.42;;;;;;;-0.38;93.87;101630.43;1699041;83;25684;-67
2022/11/27 03:19:28;;;;;;;98.12;87.95;;;;;;;-0.39;93.85;101628.81;1694404;84;25679;-65
2022/11/27 03:22:02;;;;;;;98.67;88.42;;;;;;;-0.40;93.87;101623.17;1693260;84;28544;-67
2022/11/27 03:24:33;;;;;;;100.92;90.25;;;;;;;-0.42;93.89;101611.12;1694487;84;25753;-67
2022/11/27 03:27:03;;;;;;;99.20;88.87;;;;;;;-0.42;93.95;101621.75;1699304;84;25558;-67
2022/11/27 03:29:40;;;;;;;102.10;91.32;;;;;;;-0.43;94.12;101615.59;1699262;84;25595;-68
2022/11/27 03:32:08;;;;;;;101.07;88.15;;;;;;;-0.42;94.21;101617.77;1698984;84;25454;-68
2022/11/27 03:34:36;;;;;;;105.00;94.05;;;;;;;-0.43;94.31;101622.24;1699075;84;28142;-68
2022/11/27 03:37:05;;;;;;;105.75;94.60;;;;;;;-0.34;94.30;101635.34;1699041;83;25508;-67
2022/11/27 03:39:33;;;;;;;73.97;65.22;;;;;;;-0.40;94.24;101623.69;1699274;84;25596;-67
2022/11/27 03:42:41;;;;;;;103.12;92.05;;;;;;;-0.39;94.27;101633.31;1694321;84;25451;-67
2022/11/27 03:45:38;;;;;;;108.42;92.20;;;;;;;-0.40;94.27;101629.82;1694522;84;25468;-68
2022/11/27 03:48:36;;;;;;;99.22;89.13;;;;;;;-0.40;94.42;101626.34;1688907;85;27679;-69
2022/11/27 03:51:13;;;;;;;110.83;92.57;;;;;;;-0.36;94.45;101637.39;1688928;85;25437;-68
2022/11/27 03:54:05;;;;;;;105.27;93.72;;;;;;;-0.36;94.51;101633.41;1689031;85;25689;-67
2022/11/27 03:56:43;;;;;;;110.17;90.97;;;;;;;-0.34;94.56;101634.86;1688857;85;25590;-68
2022/11/27 03:59:31;;;;;;;100.30;89.80;;;;;;;-0.34;94.56;101634.86;1688966;85;25559;-68
2022/11/27 04:01:58;;;;;;;105.12;92.85;;;;;;;-0.33;94.70;101629.83;1689092;85;27460;-67
2022/11/27 04:04:25;;;;;;;102.42;91.57;;;;;;;-0.32;94.80;101627.48;1688714;83;27366;-67
2022/11/27 04:06:52;;;;;;;102.67;90.50;;;;;;;-0.32;94.80;101627.48;1688871;85;25649;-67
2022/11/27 04:09:18;;;;;;;107.60;92.50;;;;;;;-0.23;94.79;101644.87;1688813;83;25663;-67
2022/11/27 04:11:44;;;;;;;111.85;95.25;;;;;;;-0.23;94.79;101644.87;1688903;85;25733;-67
2022/11/27 04:14:10;;;;;;;109.67;92.93;;;;;;;-0.28;94.88;101641.19;1688912;85;27472;-67
2022/11/27 04:16:38;;;;;;;104.60;92.30;;;;;;;-0.30;94.89;101636.08;1679628;85;25481;-67
2022/11/27 04:19:06;;;;;;;102.50;91.10;;;;;;;-0.29;94.95;101639.55;1661732;86;25671;-68
2022/11/27 04:21:33;;;;;;;105.65;91.53;;;;;;;-0.28;95.01;101642.00;1661932;86;26162;-67
2022/11/27 04:23:59;;;;;;;107.20;92.65;;;;;;;-0.26;95.01;101639.14;1670718;84;25489;-67
2022/11/27 04:26:27;;;;;;;102.73;91.97;;;;;;;-0.27;95.05;101637.00;1666295;86;27556;-67
2022/11/27 04:28:53;;;;;;;108.22;94.45;;;;;;;-0.26;95.04;101639.14;1666237;86;25832;-67
2022/11/27 04:31:19;;;;;;;105.60;94.10;;;;;;;-0.26;95.12;101639.95;1666280;86;25629;-67
2022/11/27 04:33:45;;;;;;;116.42;97.65;;;;;;;-0.25;95.15;101643.45;1666227;85;25606;-68
2022/11/27 04:36:12;;;;;;;103.50;92.27;;;;;;;-0.23;95.27;101646.72;1666347;85;25445;-67
2022/11/27 04:38:40;;;;;;;109.97;96.53;;;;;;;-0.22;95.30;101646.52;1666331;84;27466;-67
2022/11/27 04:41:06;;;;;;;105.50;94.15;;;;;;;-0.23;95.16;101647.53;1666240;85;25395;-67
2022/11/27 04:43:32;;;;;;;116.65;97.67;;;;;;;-0.21;95.29;101644.67;1689777;84;25661;-67
2022/11/27 04:45:58;;;;;;;105.20;92.20;;;;;;;-0.20;95.33;101644.98;1689711;84;25548;-67
2022/11/27 04:48:24;;;;;;;106.87;93.33;;;;;;;-0.19;95.37;101637.30;1687608;83;25398;-68
2022/11/27 04:50:54;;;;;;;107.87;93.55;;;;;;;-0.19;95.36;101634.64;1687580;85;27566;-69
2022/11/27 04:53:20;;;;;;;114.45;94.60;;;;;;;-0.18;95.40;101635.48;1687629;84;27390;-69
2022/11/27 04:55:51;;;;;;;111.50;95.67;;;;;;;-0.17;95.40;101637.09;1687523;85;25376;-69
2022/11/27 04:58:19;;;;;;;114.32;97.22;;;;;;;-0.17;95.45;101639.75;1687599;85;26099;-69
2022/11/27 05:00:46;;;;;;;121.53;96.67;;;;;;;-0.16;95.44;101635.56;1687599;83;25411;-68
2022/11/27 05:03:14;;;;;;;118.35;94.03;;;;;;;-0.17;95.46;101636.61;1687485;83;27484;-68
2022/11/27 05:05:42;;;;;;;115.00;99.35;;;;;;;-0.15;95.47;101635.88;1687425;84;25495;-67
2022/11/27 05:08:08;;;;;;;111.00;93.85;;;;;;;-0.15;95.49;101626.58;1687545;85;25563;-67
2022/11/27 05:10:34;;;;;;;112.83;95.43;;;;;;;-0.14;95.50;101625.53;1687514;85;25548;-67
2022/11/27 05:13:02;;;;;;;113.88;94.03;;;;;;;-0.14;95.57;101622.88;1687578;83;25573;-67
2022/11/27 05:15:29;;;;;;;108.72;93.62;;;;;;;-0.13;95.61;101621.86;1687544;85;27442;-67
2022/11/27 05:17:55;;;;;;;117.37;94.58;;;;;;;-0.12;95.62;101627.50;1699766;84;25518;-67
2022/11/27 05:20:21;;;;;;;109.03;93.43;;;;;;;-0.14;95.64;101622.88;1704569;84;35148;-67
2022/11/27 05:22:48;;;;;;;113.68;96.90;;;;;;;-0.13;95.71;101622.38;1704450;84;25551;-67
2022/11/27 05:25:17;;;;;;;103.75;92.55;;;;;;;-0.13;95.78;101629.03;1704605;84;25395;-67
2022/11/27 05:27:44;;;;;;;109.97;94.17;;;;;;;-0.13;95.79;101626.37;1704635;83;27592;-67
2022/11/27 05:30:12;;;;;;;111.88;92.88;;;;;;;-0.14;95.76;101624.20;1704436;84;25432;-67
2022/11/27 05:32:40;;;;;;;111.20;96.95;;;;;;;-0.13;95.79;101630.36;1704815;84;25538;-67
2022/11/27 05:35:08;;;;;;;116.60;95.22;;;;;;;-0.13;95.88;101628.52;1704644;82;26069;-67
2022/11/27 05:37:35;;;;;;;81.17;70.70;;;;;;;-0.13;95.93;101627.19;1704849;84;25625;-67
2022/11/27 05:40:02;;;;;;;113.05;92.35;;;;;;;-0.12;95.94;101626.66;1704541;82;27444;-67
2022/11/27 05:42:29;;;;;;;109.95;92.97;;;;;;;-0.12;95.98;101626.17;1704441;82;25541;-67
2022/11/27 05:44:55;;;;;;;111.50;91.25;;;;;;;-0.12;96.01;101624.84;1704568;84;25524;-66
2022/11/27 05:47:21;;;;;;;114.50;93.17;;;;;;;-0.12;95.98;101625.33;1704518;81;25550;-66
2022/11/27 05:49:47;;;;;;;120.65;96.57;;;;;;;-0.11;96.05;101625.13;1704575;84;25614;-66
2022/11/27 05:52:14;;;;;;;112.72;94.60;;;;;;;-0.10;96.08;101624.61;1704556;82;27504;-66
2022/11/27 05:54:41;;;;;;;120.35;96.37;;;;;;;-0.10;96.08;101625.94;1704429;84;27253;-66
2022/11/27 05:57:09;;;;;;;110.63;93.85;;;;;;;-0.10;96.09;101625.45;1704501;84;25508;-67
2022/11/27 05:59:37;;;;;;;108.05;91.45;;;;;;;-0.08;96.10;101629.23;1704507;82;25475;-67
2022/11/27 06:02:05;;;;;;;117.10;94.07;;;;;;;-0.07;96.19;101630.36;1704586;84;25403;-66
2022/11/27 06:04:36;;;;;;;118.47;92.50;;;;;;;-0.05;96.27;101630.97;1704515;84;27420;-66
2022/11/27 06:07:02;;;;;;;113.25;93.67;;;;;;;-0.04;96.15;101625.13;1704442;84;25391;-67
2022/11/27 06:09:28;;;;;;;117.15;95.65;;;;;;;-0.04;96.10;101625.13;1704534;84;25583;-67
2022/11/27 06:11:56;;;;;;;113.12;92.30;;;;;;;-0.06;96.08;101626.66;1704506;84;26276;-66
2022/11/27 06:14:23;;;;;;;117.50;94.85;;;;;;;-0.06;96.05;101627.19;1704580;84;25425;-66
2022/11/27 06:16:49;;;;;;;123.25;99.20;;;;;;;-0.07;96.12;101621.05;1701787;84;27549;-66
2022/11/27 06:19:16;;;;;;;109.35;94.22;;;;;;;-0.07;96.20;101615.73;1687502;84;25417;-66
2022/11/27 06:21:42;;;;;;;111.12;95.57;;;;;;;-0.06;96.21;101610.70;1687478;85;25410;-66
2022/11/27 06:24:10;;;;;;;111.92;95.00;;;;;;;-0.07;96.24;101609.58;1687429;84;25593;-66
2022/11/27 06:26:38;;;;;;;109.80;95.65;;;;;;;-0.09;96.15;101616.43;1687482;83;25606;-66
2022/11/27 06:29:04;;;;;;;107.40;93.17;;;;;;;-0.09;96.22;101616.43;1687565;85;27630;-67
2022/11/27 06:31:33;;;;;;;105.35;90.72;;;;;;;-0.10;96.22;101613.97;1687405;83;25514;-66
2022/11/27 06:34:00;;;;;;;76.17;67.72;;;;;;;-0.12;96.27;101613.36;1687637;84;25464;-66
2022/11/27 06:36:35;;;;;;;111.52;93.72;;;;;;;-0.11;96.35;101625.13;1687468;84;25633;-66
2022/11/27 06:39:05;;;;;;;114.35;93.30;;;;;;;-0.10;96.43;101626.78;1687670;84;25451;-66
2022/11/27 06:41:33;;;;;;;;;;;;;;;-0.10;96.55;101629.44;1690040;85;27481;-66
2022/11/27 06:44:01;;;;;;;121.37;91.45;;;;;;;-0.06;96.57;101628.52;1687416;84;25489;-66
2022/11/27 06:46:30;;;;;;;112.32;91.50;;;;;;;-0.07;96.59;101621.55;1687499;84;25466;-66
2022/11/27 06:48:59;;;;;;;83.42;63.00;;;;;;;-0.07;96.62;101630.86;1687726;83;25605;-66
2022/11/27 06:51:30;;;;;;;112.42;93.90;;;;;;;-0.06;96.63;101637.83;1687686;85;25609;-66
2022/11/27 06:54:00;;;;;;;111.75;95.00;;;;;;;-0.05;96.63;101633.63;1687536;85;28132;-66
2022/11/27 06:56:30;;;;;;;108.80;94.25;;;;;;;-0.05;96.60;101630.97;1687444;85;25609;-66
2022/11/27 06:59:00;;;;;;;106.58;93.07;;;;;;;-0.04;96.65;101631.78;1687555;84;25640;-65
2022/11/27 07:01:31;;;;;;;117.17;93.95;;;;;;;-0.03;96.67;101637.42;1687501;85;25585;-67
2022/11/27 07:03:59;;;;;;;107.65;95.70;;;;;;;-0.02;96.65;101638.55;1687508;85;25662;-67
2022/11/27 07:06:27;;;;;;;106.03;90.45;;;;;;;-0.02;96.71;101634.56;1687483;85;27408;-67
2022/11/27 07:08:55;;;;;;;117.67;94.25;;;;;;;0.00;96.77;101633.03;1687359;85;25790;-67
2022/11/27 07:11:26;;;;;;;109.25;95.50;;;;;;;-0.02;96.73;101624.41;1687484;85;25604;-67
2022/11/27 07:13:59;;;;;;;117.93;95.95;;;;;;;-0.01;96.78;101621.55;1687537;85;27449;-66
2022/11/27 07:16:29;;;;;;;114.00;95.32;;;;;;;0.02;96.82;101615.50;1687541;85;25467;-66
2022/11/27 07:19:01;;;;;;;112.37;93.95;;;;;;;0.03;96.87;101619.81;1702664;84;27998;-66
2022/11/27 07:21:30;;;;;;;116.17;95.55;;;;;;;0.04;96.86;101615.61;1704487;84;25407;-65
2022/11/27 07:23:58;;;;;;;82.37;70.20;;;;;;;0.04;96.84;101611.62;1704762;84;25621;-65
2022/11/27 07:26:29;;;;;;;116.80;95.75;;;;;;;0.03;96.73;101610.50;1678294;84;25568;-65
2022/11/27 07:28:58;;;;;;;118.08;96.92;;;;;;;0.02;96.75;101603.53;1704552;84;25460;-65
2022/11/27 07:31:28;;;;;;;117.33;96.45;;;;;;;0.02;96.79;101608.36;1704523;84;27385;-65
2022/11/27 07:33:57;;;;;;;119.82;96.40;;;;;;;0.02;96.90;101603.03;1704487;84;25413;-65
2022/11/27 07:36:28;;;;;;;114.40;96.20;;;;;;;0.13;97.04;101627.67;1704490;84;25559;-66
2022/11/27 07:38:57;;;;;;;121.47;99.58;;;;;;;0.07;97.02;101614.37;1704510;84;25837;-65
2022/11/27 07:41:25;;;;;;;134.03;100.12;;;;;;;0.06;97.04;101612.23;1704516;84;25607;-66
2022/11/27 07:43:52;;;;;;;117.17;94.90;;;;;;;0.08;97.10;101616.83;1704471;84;28020;-66
2022/11/27 07:46:21;;;;;;;122.65;97.53;;;;;;;0.07;97.11;101615.20;1704240;84;25874;-67
2022/11/27 07:48:50;;;;;;;78.05;67.47;;;;;;;0.06;96.97;101616.22;1704679;84;25617;-64
2022/11/27 07:51:21;;;;;;;133.45;96.97;;;;;;;0.06;96.98;101620.73;1704512;84;25575;-66
2022/11/27 07:53:51;;;;;;;144.80;103.50;;;;;;;0.06;97.10;101611.42;1704672;84;25623;-66
2022/11/27 07:56:19;;;;;;;128.97;101.78;;;;;;;0.05;97.22;101602.63;1704796;84;27327;-66
2022/11/27 07:58:47;;;;;;;135.52;102.32;;;;;;;0.08;97.29;101611.50;1704481;84;25538;-66
2022/11/27 08:01:19;;;;;;;131.37;99.30;;;;;;;0.09;97.31;101609.69;1704502;84;25468;-67
2022/11/27 08:03:47;;;;;;;131.95;101.75;;;;;;;0.10;97.32;101609.97;1704699;84;25592;-66
2022/11/27 08:06:21;;;;;;;125.12;97.08;;;;;;;0.09;97.32;101604.36;1704679;84;25638;-66
2022/11/27 08:08:49;;;;;;;130.27;101.55;;;;;;;0.10;97.43;101610.81;1704707;84;27892;-66
2022/11/27 08:11:24;;;;;;;129.75;96.50;;;;;;;0.21;97.50;101625.84;1704641;84;25583;-66
2022/11/27 08:13:57;;;;;;;141.70;103.47;;;;;;;0.21;97.62;101624.52;1704674;84;25726;-66
2022/11/27 08:16:24;;;;;;;136.62;99.75;;;;;;;0.15;97.63;101617.66;1704694;84;25491;-66
2022/11/27 08:18:51;;;;;;;136.25;100.87;;;;;;;0.14;97.71;101613.35;1692540;82;25501;-65
2022/11/27 08:21:21;;;;;;;131.80;98.42;;;;;;;0.14;97.77;101608.03;1687759;84;27384;-66
2022/11/27 08:23:49;;;;;;;137.43;99.40;;;;;;;0.18;97.88;101615.89;1687420;85;27234;-66
2022/11/27 08:26:18;;;;;;;150.25;99.07;;;;;;;0.20;97.92;101619.67;1687860;85;25632;-66
2022/11/27 08:28:46;;;;;;;145.92;102.53;;;;;;;0.22;98.14;101617.63;1687520;85;25526;-65
2022/11/27 08:31:14;;;;;;;140.62;101.70;;;;;;;0.26;98.27;101624.70;1687711;83;25395;-66
2022/11/27 08:33:42;;;;;;;145.28;102.35;;;;;;;0.28;98.16;101622.12;1687576;85;28373;-65
2022/11/27 08:36:11;;;;;;;139.92;96.75;;;;;;;0.31;98.19;101628.38;1687461;85;25549;-65
2022/11/27 08:38:39;;;;;;;135.55;99.37;;;;;;;0.34;98.12;101628.45;1687639;84;25400;-65
2022/11/27 08:41:08;;;;;;;135.93;100.90;;;;;;;0.32;98.10;101626.03;1687477;83;25587;-66
2022/11/27 08:43:35;;;;;;;;;;;;;;;0.39;98.25;101631.31;1690148;85;25631;-66
2022/11/27 08:46:07;;;;;;;118.08;99.25;;;;;;;0.43;98.22;101628.55;1687580;84;27475;-65
2022/11/27 08:48:36;;;;;;;131.10;98.03;;;;;;;0.44;98.17;101626.70;1687500;84;25449;-66
2022/11/27 08:51:12;;;;;;;137.40;98.50;;;;;;;0.45;97.94;101626.50;1687771;84;25412;-66
2022/11/27 08:53:44;;;;;;;146.13;103.55;;;;;;;0.45;98.03;101628.34;1687529;85;25565;-65
2022/11/27 08:56:21;;;;;;;144.25;100.62;;;;;;;0.49;98.05;101625.04;1687689;85;25411;-65
2022/11/27 08:58:49;;;;;;;128.93;101.22;;;;;;;0.51;98.15;101623.01;1687609;84;27349;-67
2022/11/27 09:01:23;;;;;;;137.62;99.75;;;;;;;0.54;98.02;101629.22;1665940;85;25596;-66
2022/11/27 09:03:52;;;;;;;131.30;101.58;;;;;;;0.58;98.21;101633.64;1687636;85;25351;-66
2022/11/27 09:06:23;;;;;;;94.05;70.25;;;;;;;0.59;98.12;101635.78;1687727;85;25622;-66
2022/11/27 09:08:51;;;;;;;126.05;96.65;;;;;;;0.62;97.94;101639.36;1686820;84;25646;-67
2022/11/27 09:11:21;;;;;;;122.10;92.10;;;;;;;0.60;97.91;101636.10;1687534;85;27528;-66
2022/11/27 09:13:50;;;;;;;139.55;101.30;;;;;;;0.65;97.87;101641.09;1687438;85;25370;-66
2022/11/27 09:16:21;;;;;;;139.20;101.35;;;;;;;0.66;97.89;101636.05;1687572;85;25452;-64
2022/11/27 09:18:53;;;;;;;151.57;102.35;;;;;;;0.66;97.89;101636.05;1687457;83;25634;-63
2022/11/27 09:21:26;;;;;;;135.65;102.15;;;;;;;0.68;97.84;101631.84;1687632;85;25506;-63
2022/11/27 09:23:56;;;;;;;129.38;102.75;;;;;;;0.68;97.81;101624.70;1687585;84;27443;-62
2022/11/27 09:26:25;;;;;;;140.77;104.53;;;;;;;0.70;97.79;101631.16;1687492;85;25428;-64
2022/11/27 09:28:57;;;;;;;140.52;103.83;;;;;;;0.69;97.82;101622.84;1687672;85;25615;-63
2022/11/27 09:31:26;;;;;;;147.62;103.50;;;;;;;0.71;97.87;101620.78;1687567;85;25577;-63
2022/11/27 09:33:52;;;;;;;107.83;74.30;;;;;;;0.73;98.07;101614.72;1687782;85;25530;-64
2022/11/27 09:36:25;;;;;;;155.63;105.78;;;;;;;0.72;97.96;101615.77;1687549;85;28120;-63
2022/11/27 09:38:54;;;;;;;149.18;102.38;;;;;;;0.77;98.33;101615.12;1687516;85;25589;-63
2022/11/27 09:41:41;;;;;;;139.75;103.70;;;;;;;0.80;98.38;101614.20;1687898;85;25414;-64
2022/11/27 09:44:22;;;;;;;145.32;102.02;;;;;;;0.81;98.17;101608.36;1687503;85;25538;-64
2022/11/27 09:46:53;;;;;;;150.78;104.47;;;;;;;0.81;98.17;101608.36;1687655;85;25414;-63
2022/11/27 09:49:34;;;;;;;146.75;98.85;;;;;;;0.86;98.40;101617.86;1687600;85;27967;-63
2022/11/27 09:52:06;;;;;;;143.45;100.62;;;;;;;1.00;98.47;101635.41;1687484;84;25381;-63
2022/11/27 09:54:58;;;;;;;151.02;106.50;;;;;;;0.93;98.39;101619.45;1687521;84;25573;-63
2022/11/27 09:57:30;;;;;;;143.68;104.17;;;;;;;0.98;98.61;101617.49;1686812;84;25411;-64
2022/11/27 10:00:02;;;;;;;139.70;104.90;;;;;;;1.02;98.52;101616.55;1687640;85;25572;-64
2022/11/27 10:02:33;;;;;;;148.87;103.00;;;;;;;1.04;98.45;101614.48;1686751;84;27356;-63
2022/11/27 10:05:05;;;;;;;154.07;102.92;;;;;;;1.05;98.22;101614.80;1687490;85;25472;-64
2022/11/27 10:07:50;;;;;;;149.20;106.67;;;;;;;1.08;98.30;101615.19;1662988;85;25740;-63
2022/11/27 10:10:44;;;;;;;130.82;102.82;;;;;;;1.13;98.43;101615.08;1686734;85;25598;-65
2022/11/27 10:13:31;;;;;;;135.70;104.35;;;;;;;1.15;98.65;101607.69;1687655;85;25387;-63
2022/11/27 10:16:27;;;;;;;141.47;107.72;;;;;;;1.24;99.02;101597.05;1687566;85;27306;-65
2022/11/27 10:19:23;;;;;;;133.78;102.32;;;;;;;1.30;99.01;101594.35;1694086;81;25396;-65
2022/11/27 10:21:58;;;;;;;155.18;107.40;;;;;;;1.39;98.85;101596.77;1704653;84;25392;-65
2022/11/27 10:24:36;;;;;;;156.10;104.65;;;;;;;1.42;98.51;101595.01;1704490;84;25569;-65
2022/11/27 10:27:23;;;;;;;138.03;103.95;;;;;;;1.44;98.23;101599.08;1703996;84;25699;-63
2022/11/27 10:29:55;;;;;;;143.65;106.87;;;;;;;1.46;98.27;101598.37;1704606;84;27404;-65
2022/11/27 10:32:29;;;;;;;152.68;105.83;;;;;;;1.53;98.29;101604.16;1704539;84;25409;-66
2022/11/27 10:35:00;;;;;;;154.10;105.55;;;;;;;1.55;98.32;101605.58;1704649;84;25536;-65
2022/11/27 10:37:47;;;;;;;139.72;104.27;;;;;;;1.56;98.07;101600.53;1704511;84;25410;-64
2022/11/27 10:40:19;;;;;;;146.85;108.70;;;;;;;1.60;98.32;101601.75;1703383;84;25383;-66
2022/11/27 10:43:06;;;;;;;151.12;107.80;;;;;;;1.63;97.92;101597.82;1704607;84;27487;-67
2022/11/27 10:46:17;;;;;;;151.87;106.63;;;;;;;1.65;97.93;101598.41;1656267;86;25584;-67
2022/11/27 10:48:43;;;;;;;140.07;107.58;;;;;;;1.70;98.02;101590.58;1656441;86;25614;-66
2022/11/27 10:51:18;;;;;;;125.30;96.87;;;;;;;1.76;98.16;101594.24;1656419;86;25524;-66
2022/11/27 10:53:47;;;;;;;138.50;108.27;;;;;;;1.77;97.95;101586.52;1656473;86;25668;-65
2022/11/27 10:56:38;;;;;;;105.72;53.02;;;;;;;1.84;98.20;101585.97;1634318;86;27342;-66
2022/11/27 10:59:09;;;;;;;123.55;91.40;;;;;;;1.89;97.94;101584.80;1656291;86;25697;-66
2022/11/27 11:01:46;;;;;;;117.97;69.30;;;;;;;1.90;97.73;101584.27;1656463;86;25470;-67
2022/11/27 11:04:18;;;;;;;133.12;105.43;;;;;;;1.97;98.17;101586.34;1656307;86;28743;-66
2022/11/27 11:06:48;;;;;;;144.07;107.67;;;;;;;2.04;98.48;101583.93;1656440;86;25501;-67
2022/11/27 11:09:20;;;;;;;126.75;92.10;;;;;;;2.07;97.79;101581.85;1656477;86;27070;-61
2022/11/27 11:11:48;;;;;;;144.82;108.78;;;;;;;2.08;97.74;101577.62;1656261;86;25675;-61
2022/11/27 11:14:22;;;;;;;147.30;107.20;;;;;;;2.11;97.42;101587.88;1656449;86;25624;-61
2022/11/27 11:16:51;;;;;;;148.43;107.83;;;;;;;2.13;97.70;101583.13;1656412;86;25571;-61
2022/11/27 11:19:37;;;;;;;89.07;63.42;;;;;;;2.17;97.52;101578.97;1661575;86;25685;-60
2022/11/27 11:22:15;;;;;;;92.75;35.08;;;;;;;2.19;97.41;101585.42;1675421;83;27437;-61
2022/11/27 11:24:49;;;;;;;117.77;68.42;;;;;;;2.19;97.16;101576.88;1709822;83;25465;-62
2022/11/27 11:27:21;;;;;;;105.95;59.30;;;;;;;2.22;96.98;101578.30;1709419;83;25661;-61